North Corners, Georgia
Current Conditions -  °F | °C
As of 12:53 PM on Sunday 21 Dec 2014 (Local Time) from KVPC Reporting Station
Overcast Overcast  
Wind Chill: 51°   Ceiling: 1600
Heat Index: 51°   Visibility: 9mi
Dew Point: 43°   Wind: 6mph
Humidity: 74%   Direction: 60°ENE
Pressure: 30.15"   Gusts: NA
Location:  34.1498°N, 84.8279°W
Report Text: KVPC 211753Z AUTO 06005KT 9SM OVC016 11/06 A3015 RMK AO2 SLP206 T01060061 10106 20056 58022
Loading
Personal Weather Stations






























Interactive Weather Map New forecast layout! Learn more

10-Day Weather Forecast

Advertisements
Track Severe Weather on mobile